sensor_id;sensor_type;location;lat;lon;timestamp;temperature;humidity
56268;DHT22;42175;46.930;9.532;2023-02-26T00:01:17;22.90;33.40
56268;DHT22;42175;46.930;9.532;2023-02-26T00:03:48;22.90;33.60
56268;DHT22;42175;46.930;9.532;2023-02-26T00:06:14;22.90;33.70
56268;DHT22;42175;46.930;9.532;2023-02-26T00:08:40;22.90;33.90
56268;DHT22;42175;46.930;9.532;2023-02-26T00:11:07;22.90;33.70
56268;DHT22;42175;46.930;9.532;2023-02-26T00:13:35;22.90;33.60
56268;DHT22;42175;46.930;9.532;2023-02-26T00:16:02;22.80;33.30
56268;DHT22;42175;46.930;9.532;2023-02-26T00:18:28;22.80;33.30
56268;DHT22;42175;46.930;9.532;2023-02-26T00:20:55;22.80;33.30
56268;DHT22;42175;46.930;9.532;2023-02-26T00:23:21;22.70;33.20
56268;DHT22;42175;46.930;9.532;2023-02-26T00:25:48;22.80;33.30
56268;DHT22;42175;46.930;9.532;2023-02-26T00:28:14;22.80;33.40
56268;DHT22;42175;46.930;9.532;2023-02-26T00:30:40;22.80;33.60
56268;DHT22;42175;46.930;9.532;2023-02-26T00:33:06;22.80;33.60
56268;DHT22;42175;46.930;9.532;2023-02-26T00:35:32;22.80;33.60
56268;DHT22;42175;46.930;9.532;2023-02-26T00:38:08;22.80;33.70
56268;DHT22;42175;46.930;9.532;2023-02-26T00:43:11;22.90;33.90
56268;DHT22;42175;46.930;9.532;2023-02-26T00:51:14;22.70;33.00
56268;DHT22;42175;46.930;9.532;2023-02-26T00:53:52;22.70;33.00
56268;DHT22;42175;46.930;9.532;2023-02-26T00:56:21;22.70;33.20
56268;DHT22;42175;46.930;9.532;2023-02-26T00:58:47;22.70;33.40
56268;DHT22;42175;46.930;9.532;2023-02-26T01:01:13;22.70;33.50
56268;DHT22;42175;46.930;9.532;2023-02-26T01:03:39;22.70;33.50
56268;DHT22;42175;46.930;9.532;2023-02-26T01:06:10;22.70;33.50
56268;DHT22;42175;46.930;9.532;2023-02-26T01:08:44;22.70;33.50
56268;DHT22;42175;46.930;9.532;2023-02-26T01:11:11;22.70;33.40
56268;DHT22;42175;46.930;9.532;2023-02-26T01:13:37;22.70;33.50
56268;DHT22;42175;46.930;9.532;2023-02-26T01:16:09;22.70;33.60
56268;DHT22;42175;46.930;9.532;2023-02-26T01:21:37;22.70;33.40
56268;DHT22;42175;46.930;9.532;2023-02-26T01:24:09;22.70;33.40
56268;DHT22;42175;46.930;9.532;2023-02-26T01:26:38;22.70;33.60
56268;DHT22;42175;46.930;9.532;2023-02-26T01:29:04;22.70;33.60
56268;DHT22;42175;46.930;9.532;2023-02-26T01:34:28;22.60;33.10
56268;DHT22;42175;46.930;9.532;2023-02-26T01:42:49;22.60;33.30
56268;DHT22;42175;46.930;9.532;2023-02-26T01:45:19;22.60;33.30
56268;DHT22;42175;46.930;9.532;2023-02-26T01:47:56;22.60;33.30
56268;DHT22;42175;46.930;9.532;2023-02-26T01:50:24;22.60;33.30
56268;DHT22;42175;46.930;9.532;2023-02-26T01:55:34;22.60;33.40
56268;DHT22;42175;46.930;9.532;2023-02-26T01:58:00;22.50;33.10
56268;DHT22;42175;46.930;9.532;2023-02-26T02:00:29;22.50;33.60
56268;DHT22;42175;46.930;9.532;2023-02-26T02:02:55;22.50;33.00
56268;DHT22;42175;46.930;9.532;2023-02-26T02:05:46;22.50;33.20
56268;DHT22;42175;46.930;9.532;2023-02-26T02:08:11;22.50;33.00
56268;DHT22;42175;46.930;9.532;2023-02-26T02:10:41;22.50;33.10
56268;DHT22;42175;46.930;9.532;2023-02-26T02:21:31;22.40;32.40
56268;DHT22;42175;46.930;9.532;2023-02-26T02:24:10;22.50;32.60
56268;DHT22;42175;46.930;9.532;2023-02-26T02:27:03;22.50;32.40
56268;DHT22;42175;46.930;9.532;2023-02-26T02:32:09;22.40;32.20
56268;DHT22;42175;46.930;9.532;2023-02-26T02:34:45;22.40;32.20
56268;DHT22;42175;46.930;9.532;2023-02-26T02:40:23;22.40;32.30
56268;DHT22;42175;46.930;9.532;2023-02-26T02:43:12;22.40;32.20
56268;DHT22;42175;46.930;9.532;2023-02-26T02:45:49;22.40;32.20
56268;DHT22;42175;46.930;9.532;2023-02-26T02:48:45;22.40;32.20
56268;DHT22;42175;46.930;9.532;2023-02-26T02:51:20;22.40;32.30
56268;DHT22;42175;46.930;9.532;2023-02-26T02:59:03;22.40;32.30
56268;DHT22;42175;46.930;9.532;2023-02-26T03:01:32;22.40;32.10
56268;DHT22;42175;46.930;9.532;2023-02-26T03:04:10;22.40;32.10
56268;DHT22;42175;46.930;9.532;2023-02-26T03:06:37;22.40;32.30
56268;DHT22;42175;46.930;9.532;2023-02-26T03:09:05;22.40;32.40
56268;DHT22;42175;46.930;9.532;2023-02-26T03:11:32;22.40;32.30
56268;DHT22;42175;46.930;9.532;2023-02-26T03:13:58;22.40;32.20
56268;DHT22;42175;46.930;9.532;2023-02-26T03:22:31;22.40;32.00
56268;DHT22;42175;46.930;9.532;2023-02-26T03:28:48;22.40;32.20
56268;DHT22;42175;46.930;9.532;2023-02-26T03:31:30;22.40;32.20
56268;DHT22;42175;46.930;9.532;2023-02-26T03:34:29;22.40;32.20
56268;DHT22;42175;46.930;9.532;2023-02-26T03:37:04;22.40;32.00
56268;DHT22;42175;46.930;9.532;2023-02-26T03:39:41;22.30;31.90
56268;DHT22;42175;46.930;9.532;2023-02-26T03:42:14;22.40;32.10
56268;DHT22;42175;46.930;9.532;2023-02-26T03:44:48;22.30;31.90
56268;DHT22;42175;46.930;9.532;2023-02-26T03:47:18;22.30;31.90
56268;DHT22;42175;46.930;9.532;2023-02-26T03:49:52;22.30;32.00
56268;DHT22;42175;46.930;9.532;2023-02-26T03:52:23;22.30;31.90
56268;DHT22;42175;46.930;9.532;2023-02-26T03:54:58;22.40;32.00
56268;DHT22;42175;46.930;9.532;2023-02-26T03:57:25;22.30;32.00
56268;DHT22;42175;46.930;9.532;2023-02-26T03:59:52;22.40;32.10
56268;DHT22;42175;46.930;9.532;2023-02-26T04:02:24;22.40;32.20
56268;DHT22;42175;46.930;9.532;2023-02-26T04:04:52;22.40;32.20
56268;DHT22;42175;46.930;9.532;2023-02-26T04:07:20;22.40;32.20
56268;DHT22;42175;46.930;9.532;2023-02-26T04:09:49;22.40;32.20
56268;DHT22;42175;46.930;9.532;2023-02-26T04:12:23;22.40;32.20
56268;DHT22;42175;46.930;9.532;2023-02-26T04:14:49;22.40;32.30
56268;DHT22;42175;46.930;9.532;2023-02-26T04:17:15;22.40;32.30
56268;DHT22;42175;46.930;9.532;2023-02-26T04:19:41;22.40;32.20
56268;DHT22;42175;46.930;9.532;2023-02-26T04:22:06;22.40;32.20
56268;DHT22;42175;46.930;9.532;2023-02-26T04:24:32;22.40;32.20
56268;DHT22;42175;46.930;9.532;2023-02-26T04:26:58;22.50;32.20
56268;DHT22;42175;46.930;9.532;2023-02-26T04:29:23;22.40;32.20
56268;DHT22;42175;46.930;9.532;2023-02-26T04:31:49;22.50;32.30
56268;DHT22;42175;46.930;9.532;2023-02-26T04:34:15;22.50;32.30
56268;DHT22;42175;46.930;9.532;2023-02-26T04:36:41;22.50;32.20
56268;DHT22;42175;46.930;9.532;2023-02-26T04:39:06;22.40;32.20
56268;DHT22;42175;46.930;9.532;2023-02-26T04:41:36;22.40;32.20
56268;DHT22;42175;46.930;9.532;2023-02-26T04:44:02;22.40;32.20
56268;DHT22;42175;46.930;9.532;2023-02-26T04:46:28;22.40;32.20
56268;DHT22;42175;46.930;9.532;2023-02-26T04:48:54;22.40;32.20
56268;DHT22;42175;46.930;9.532;2023-02-26T04:51:20;22.40;32.10
56268;DHT22;42175;46.930;9.532;2023-02-26T04:53:46;22.40;32.20
56268;DHT22;42175;46.930;9.532;2023-02-26T04:56:11;22.40;32.10
56268;DHT22;42175;46.930;9.532;2023-02-26T04:58:37;22.40;32.10
56268;DHT22;42175;46.930;9.532;2023-02-26T05:01:03;22.40;32.10
56268;DHT22;42175;46.930;9.532;2023-02-26T05:03:29;22.40;32.00
56268;DHT22;42175;46.930;9.532;2023-02-26T05:05:55;22.40;32.00
56268;DHT22;42175;46.930;9.532;2023-02-26T05:08:21;22.40;32.00
56268;DHT22;42175;46.930;9.532;2023-02-26T05:10:46;22.40;32.00
56268;DHT22;42175;46.930;9.532;2023-02-26T05:13:13;22.40;32.00
56268;DHT22;42175;46.930;9.532;2023-02-26T05:15:39;22.40;32.00
56268;DHT22;42175;46.930;9.532;2023-02-26T05:18:05;22.40;32.00
56268;DHT22;42175;46.930;9.532;2023-02-26T05:20:30;22.40;32.00
56268;DHT22;42175;46.930;9.532;2023-02-26T05:22:56;22.40;32.00
56268;DHT22;42175;46.930;9.532;2023-02-26T05:25:22;22.40;32.00
56268;DHT22;42175;46.930;9.532;2023-02-26T05:27:48;22.40;32.10
56268;DHT22;42175;46.930;9.532;2023-02-26T05:30:15;22.30;32.00
56268;DHT22;42175;46.930;9.532;2023-02-26T05:32:41;22.40;32.00
56268;DHT22;42175;46.930;9.532;2023-02-26T05:35:08;22.50;32.10
56268;DHT22;42175;46.930;9.532;2023-02-26T05:37:35;22.40;32.00
56268;DHT22;42175;46.930;9.532;2023-02-26T05:40:01;22.40;31.80
56268;DHT22;42175;46.930;9.532;2023-02-26T05:42:26;22.40;32.00
56268;DHT22;42175;46.930;9.532;2023-02-26T05:44:52;22.40;31.90
56268;DHT22;42175;46.930;9.532;2023-02-26T05:47:18;22.40;31.80
56268;DHT22;42175;46.930;9.532;2023-02-26T05:49:44;22.40;31.80
56268;DHT22;42175;46.930;9.532;2023-02-26T05:52:10;22.40;31.80
56268;DHT22;42175;46.930;9.532;2023-02-26T05:54:36;22.40;31.70
56268;DHT22;42175;46.930;9.532;2023-02-26T05:57:01;22.40;31.80
56268;DHT22;42175;46.930;9.532;2023-02-26T05:59:27;22.40;31.80
56268;DHT22;42175;46.930;9.532;2023-02-26T06:01:53;22.40;31.70
56268;DHT22;42175;46.930;9.532;2023-02-26T06:04:19;22.40;31.70
56268;DHT22;42175;46.930;9.532;2023-02-26T06:06:45;22.50;31.60
56268;DHT22;42175;46.930;9.532;2023-02-26T06:09:10;22.40;32.30
56268;DHT22;42175;46.930;9.532;2023-02-26T06:11:36;22.40;31.50
56268;DHT22;42175;46.930;9.532;2023-02-26T06:14:04;22.40;31.60
56268;DHT22;42175;46.930;9.532;2023-02-26T06:16:29;22.40;31.40
56268;DHT22;42175;46.930;9.532;2023-02-26T06:18:55;22.40;31.50
56268;DHT22;42175;46.930;9.532;2023-02-26T06:21:21;22.30;31.30
56268;DHT22;42175;46.930;9.532;2023-02-26T06:23:46;22.30;31.00
56268;DHT22;42175;46.930;9.532;2023-02-26T06:26:12;22.30;31.10
56268;DHT22;42175;46.930;9.532;2023-02-26T06:28:38;22.30;31.30
56268;DHT22;42175;46.930;9.532;2023-02-26T06:31:04;22.20;30.90
56268;DHT22;42175;46.930;9.532;2023-02-26T06:33:29;22.30;30.90
56268;DHT22;42175;46.930;9.532;2023-02-26T06:35:55;22.30;31.10
56268;DHT22;42175;46.930;9.532;2023-02-26T06:38:22;22.30;31.10
56268;DHT22;42175;46.930;9.532;2023-02-26T06:40:48;22.30;31.00
56268;DHT22;42175;46.930;9.532;2023-02-26T06:43:14;22.30;31.30
56268;DHT22;42175;46.930;9.532;2023-02-26T06:45:40;22.40;31.20
56268;DHT22;42175;46.930;9.532;2023-02-26T06:48:05;22.30;31.20
56268;DHT22;42175;46.930;9.532;2023-02-26T06:50:31;22.40;31.20
56268;DHT22;42175;46.930;9.532;2023-02-26T06:52:57;22.30;31.20
56268;DHT22;42175;46.930;9.532;2023-02-26T06:55:23;22.40;31.30
56268;DHT22;42175;46.930;9.532;2023-02-26T06:57:55;22.40;31.60
56268;DHT22;42175;46.930;9.532;2023-02-26T07:00:22;22.30;31.80
56268;DHT22;42175;46.930;9.532;2023-02-26T07:02:49;22.40;32.30
56268;DHT22;42175;46.930;9.532;2023-02-26T07:05:15;22.30;32.70
56268;DHT22;42175;46.930;9.532;2023-02-26T07:07:41;22.30;32.80
56268;DHT22;42175;46.930;9.532;2023-02-26T07:10:09;22.40;33.40
56268;DHT22;42175;46.930;9.532;2023-02-26T07:12:34;22.40;33.40
56268;DHT22;42175;46.930;9.532;2023-02-26T07:15:00;22.40;33.50
56268;DHT22;42175;46.930;9.532;2023-02-26T07:17:26;22.30;33.20
56268;DHT22;42175;46.930;9.532;2023-02-26T07:19:52;22.30;33.30
56268;DHT22;42175;46.930;9.532;2023-02-26T07:22:18;22.40;33.60
56268;DHT22;42175;46.930;9.532;2023-02-26T07:24:45;22.40;33.70
56268;DHT22;42175;46.930;9.532;2023-02-26T07:27:11;22.40;33.50
56268;DHT22;42175;46.930;9.532;2023-02-26T07:29:37;22.40;33.50
56268;DHT22;42175;46.930;9.532;2023-02-26T07:32:03;22.40;33.10
56268;DHT22;42175;46.930;9.532;2023-02-26T07:34:30;22.40;33.30
56268;DHT22;42175;46.930;9.532;2023-02-26T07:36:56;22.40;33.20
56268;DHT22;42175;46.930;9.532;2023-02-26T07:39:24;22.40;33.00
56268;DHT22;42175;46.930;9.532;2023-02-26T07:41:50;22.40;33.10
56268;DHT22;42175;46.930;9.532;2023-02-26T07:44:15;22.30;32.80
56268;DHT22;42175;46.930;9.532;2023-02-26T07:46:41;22.40;33.10
56268;DHT22;42175;46.930;9.532;2023-02-26T07:49:07;22.30;32.70
56268;DHT22;42175;46.930;9.532;2023-02-26T07:51:32;22.30;32.60
56268;DHT22;42175;46.930;9.532;2023-02-26T07:53:58;22.30;32.50
56268;DHT22;42175;46.930;9.532;2023-02-26T07:56:25;22.30;32.40
56268;DHT22;42175;46.930;9.532;2023-02-26T07:58:50;22.30;32.40
56268;DHT22;42175;46.930;9.532;2023-02-26T08:01:16;22.30;32.30
56268;DHT22;42175;46.930;9.532;2023-02-26T08:03:42;22.30;33.60
56268;DHT22;42175;46.930;9.532;2023-02-26T08:06:08;22.30;33.20
56268;DHT22;42175;46.930;9.532;2023-02-26T08:08:33;22.30;32.80
56268;DHT22;42175;46.930;9.532;2023-02-26T08:11:00;22.30;32.60
56268;DHT22;42175;46.930;9.532;2023-02-26T08:13:26;22.30;32.50
56268;DHT22;42175;46.930;9.532;2023-02-26T08:15:52;22.30;32.70
56268;DHT22;42175;46.930;9.532;2023-02-26T08:18:18;22.30;32.50
56268;DHT22;42175;46.930;9.532;2023-02-26T08:20:43;22.30;32.30
56268;DHT22;42175;46.930;9.532;2023-02-26T08:23:09;22.30;32.60
56268;DHT22;42175;46.930;9.532;2023-02-26T08:25:35;22.30;33.70
56268;DHT22;42175;46.930;9.532;2023-02-26T08:28:00;22.30;33.80
56268;DHT22;42175;46.930;9.532;2023-02-26T08:30:28;22.30;33.30
56268;DHT22;42175;46.930;9.532;2023-02-26T08:32:54;22.40;33.00
56268;DHT22;42175;46.930;9.532;2023-02-26T08:35:20;22.40;33.10
56268;DHT22;42175;46.930;9.532;2023-02-26T08:37:46;22.40;33.60
56268;DHT22;42175;46.930;9.532;2023-02-26T08:40:12;22.40;34.60
56268;DHT22;42175;46.930;9.532;2023-02-26T08:42:38;22.40;35.10
56268;DHT22;42175;46.930;9.532;2023-02-26T08:45:04;22.40;34.20
56268;DHT22;42175;46.930;9.532;2023-02-26T08:47:30;22.40;33.70
56268;DHT22;42175;46.930;9.532;2023-02-26T08:49:56;22.40;33.30
56268;DHT22;42175;46.930;9.532;2023-02-26T08:52:25;22.40;32.90
56268;DHT22;42175;46.930;9.532;2023-02-26T08:54:51;22.40;32.70
56268;DHT22;42175;46.930;9.532;2023-02-26T08:57:17;22.40;32.60
56268;DHT22;42175;46.930;9.532;2023-02-26T08:59:43;22.40;32.20
56268;DHT22;42175;46.930;9.532;2023-02-26T09:02:12;22.40;32.20
56268;DHT22;42175;46.930;9.532;2023-02-26T09:04:38;22.40;32.00
56268;DHT22;42175;46.930;9.532;2023-02-26T09:07:04;22.40;31.90
56268;DHT22;42175;46.930;9.532;2023-02-26T09:09:29;22.40;31.60
56268;DHT22;42175;46.930;9.532;2023-02-26T09:11:55;22.40;31.90
56268;DHT22;42175;46.930;9.532;2023-02-26T09:14:21;22.40;31.80
56268;DHT22;42175;46.930;9.532;2023-02-26T09:16:47;22.40;31.60
56268;DHT22;42175;46.930;9.532;2023-02-26T09:19:13;22.40;31.50
56268;DHT22;42175;46.930;9.532;2023-02-26T09:21:38;22.40;31.60
56268;DHT22;42175;46.930;9.532;2023-02-26T09:24:04;22.30;31.40
56268;DHT22;42175;46.930;9.532;2023-02-26T09:26:30;22.30;31.00
56268;DHT22;42175;46.930;9.532;2023-02-26T09:28:56;22.30;31.30
56268;DHT22;42175;46.930;9.532;2023-02-26T09:31:22;22.30;32.00
56268;DHT22;42175;46.930;9.532;2023-02-26T09:33:47;22.30;32.00
56268;DHT22;42175;46.930;9.532;2023-02-26T09:36:13;22.30;32.50
56268;DHT22;42175;46.930;9.532;2023-02-26T09:38:39;22.30;32.50
56268;DHT22;42175;46.930;9.532;2023-02-26T09:41:09;22.30;32.20
56268;DHT22;42175;46.930;9.532;2023-02-26T09:49:44;22.30;31.40
56268;DHT22;42175;46.930;9.532;2023-02-26T09:54:43;22.20;31.10
56268;DHT22;42175;46.930;9.532;2023-02-26T09:57:17;22.20;31.00
56268;DHT22;42175;46.930;9.532;2023-02-26T09:59:45;22.20;31.10
56268;DHT22;42175;46.930;9.532;2023-02-26T10:02:23;22.30;31.20
56268;DHT22;42175;46.930;9.532;2023-02-26T10:12:36;22.20;30.60
56268;DHT22;42175;46.930;9.532;2023-02-26T10:15:23;22.30;30.70
56268;DHT22;42175;46.930;9.532;2023-02-26T10:18:09;22.30;30.80
56268;DHT22;42175;46.930;9.532;2023-02-26T10:21:14;22.30;31.40
56268;DHT22;42175;46.930;9.532;2023-02-26T10:26:11;22.30;31.60
56268;DHT22;42175;46.930;9.532;2023-02-26T10:34:42;22.30;32.60
56268;DHT22;42175;46.930;9.532;2023-02-26T10:50:30;22.40;32.20
56268;DHT22;42175;46.930;9.532;2023-02-26T10:52:57;22.30;32.30
56268;DHT22;42175;46.930;9.532;2023-02-26T11:00:28;22.40;31.80
56268;DHT22;42175;46.930;9.532;2023-02-26T11:02:55;22.40;31.80
56268;DHT22;42175;46.930;9.532;2023-02-26T11:05:27;22.40;32.20
56268;DHT22;42175;46.930;9.532;2023-02-26T11:07:57;22.30;32.90
56268;DHT22;42175;46.930;9.532;2023-02-26T11:10:30;22.40;32.50
56268;DHT22;42175;46.930;9.532;2023-02-26T11:13:03;22.40;32.30
56268;DHT22;42175;46.930;9.532;2023-02-26T11:15:29;22.40;31.80
56268;DHT22;42175;46.930;9.532;2023-02-26T11:17:56;22.40;31.80
56268;DHT22;42175;46.930;9.532;2023-02-26T11:20:39;22.40;31.40
56268;DHT22;42175;46.930;9.532;2023-02-26T11:23:11;22.40;31.60
56268;DHT22;42175;46.930;9.532;2023-02-26T11:25:38;22.30;31.60
56268;DHT22;42175;46.930;9.532;2023-02-26T11:28:19;22.30;31.50
56268;DHT22;42175;46.930;9.532;2023-02-26T11:30:47;22.40;31.40
56268;DHT22;42175;46.930;9.532;2023-02-26T11:33:36;22.30;31.40
56268;DHT22;42175;46.930;9.532;2023-02-26T11:36:13;22.30;31.30
56268;DHT22;42175;46.930;9.532;2023-02-26T11:38:43;22.30;31.10
56268;DHT22;42175;46.930;9.532;2023-02-26T11:41:11;22.30;30.90
56268;DHT22;42175;46.930;9.532;2023-02-26T11:43:54;22.40;30.70
56268;DHT22;42175;46.930;9.532;2023-02-26T11:46:24;22.40;30.50
56268;DHT22;42175;46.930;9.532;2023-02-26T11:48:52;22.40;30.50
56268;DHT22;42175;46.930;9.532;2023-02-26T11:51:24;22.40;30.30
56268;DHT22;42175;46.930;9.532;2023-02-26T11:53:58;22.40;30.30
56268;DHT22;42175;46.930;9.532;2023-02-26T11:56:38;22.40;30.10
56268;DHT22;42175;46.930;9.532;2023-02-26T11:59:23;22.30;30.20
56268;DHT22;42175;46.930;9.532;2023-02-26T12:01:50;22.30;30.00
56268;DHT22;42175;46.930;9.532;2023-02-26T12:04:24;22.30;30.00
56268;DHT22;42175;46.930;9.532;2023-02-26T12:06:51;22.30;30.00
56268;DHT22;42175;46.930;9.532;2023-02-26T12:09:18;22.30;29.90
56268;DHT22;42175;46.930;9.532;2023-02-26T12:12:01;22.30;29.90
56268;DHT22;42175;46.930;9.532;2023-02-26T12:29:25;22.30;29.90
56268;DHT22;42175;46.930;9.532;2023-02-26T12:32:18;22.30;29.70
56268;DHT22;42175;46.930;9.532;2023-02-26T12:46:15;22.30;29.60
56268;DHT22;42175;46.930;9.532;2023-02-26T12:55:02;22.20;29.30
56268;DHT22;42175;46.930;9.532;2023-02-26T12:57:56;22.20;29.30
56268;DHT22;42175;46.930;9.532;2023-02-26T13:11:50;22.20;29.30
56268;DHT22;42175;46.930;9.532;2023-02-26T13:17:08;22.20;29.40
56268;DHT22;42175;46.930;9.532;2023-02-26T13:19:50;22.20;29.40
56268;DHT22;42175;46.930;9.532;2023-02-26T13:22:21;22.20;29.30
56268;DHT22;42175;46.930;9.532;2023-02-26T13:24:58;22.20;29.40
56268;DHT22;42175;46.930;9.532;2023-02-26T13:27:30;22.20;29.30
56268;DHT22;42175;46.930;9.532;2023-02-26T13:32:26;22.20;29.30
56268;DHT22;42175;46.930;9.532;2023-02-26T13:34:59;22.20;29.40
56268;DHT22;42175;46.930;9.532;2023-02-26T13:37:42;22.20;29.30
56268;DHT22;42175;46.930;9.532;2023-02-26T13:40:42;22.20;29.30
56268;DHT22;42175;46.930;9.532;2023-02-26T13:43:35;22.20;29.10
56268;DHT22;42175;46.930;9.532;2023-02-26T13:48:59;22.20;29.20
56268;DHT22;42175;46.930;9.532;2023-02-26T13:51:36;22.20;29.70
56268;DHT22;42175;46.930;9.532;2023-02-26T13:57:08;22.20;29.30
56268;DHT22;42175;46.930;9.532;2023-02-26T14:05:09;22.30;29.30
56268;DHT22;42175;46.930;9.532;2023-02-26T14:07:53;22.20;29.30
56268;DHT22;42175;46.930;9.532;2023-02-26T14:10:37;22.20;29.10
56268;DHT22;42175;46.930;9.532;2023-02-26T14:13:16;22.20;29.40
56268;DHT22;42175;46.930;9.532;2023-02-26T14:15:59;22.10;29.40
56268;DHT22;42175;46.930;9.532;2023-02-26T14:24:19;22.20;29.30
56268;DHT22;42175;46.930;9.532;2023-02-26T14:26:49;22.20;29.40
56268;DHT22;42175;46.930;9.532;2023-02-26T14:29:22;22.20;29.40
56268;DHT22;42175;46.930;9.532;2023-02-26T14:34:25;22.20;29.20
56268;DHT22;42175;46.930;9.532;2023-02-26T14:36:59;22.20;29.30
56268;DHT22;42175;46.930;9.532;2023-02-26T14:39:40;22.20;29.30
56268;DHT22;42175;46.930;9.532;2023-02-26T14:42:20;22.20;29.30
56268;DHT22;42175;46.930;9.532;2023-02-26T14:44:50;22.10;29.20
56268;DHT22;42175;46.930;9.532;2023-02-26T14:47:18;22.10;29.20
56268;DHT22;42175;46.930;9.532;2023-02-26T14:49:46;22.20;29.20
56268;DHT22;42175;46.930;9.532;2023-02-26T15:01:05;22.20;29.20
56268;DHT22;42175;46.930;9.532;2023-02-26T15:06:43;22.20;29.10
56268;DHT22;42175;46.930;9.532;2023-02-26T15:23:46;22.20;29.20
56268;DHT22;42175;46.930;9.532;2023-02-26T15:25:51;22.20;29.30
56268;DHT22;42175;46.930;9.532;2023-02-26T15:28:30;22.20;29.30
56268;DHT22;42175;46.930;9.532;2023-02-26T15:30:59;22.20;29.20
56268;DHT22;42175;46.930;9.532;2023-02-26T15:33:26;22.20;29.20
56268;DHT22;42175;46.930;9.532;2023-02-26T15:35:54;22.20;29.30
56268;DHT22;42175;46.930;9.532;2023-02-26T15:38:21;22.20;29.20
56268;DHT22;42175;46.930;9.532;2023-02-26T15:40:50;22.20;29.20
56268;DHT22;42175;46.930;9.532;2023-02-26T15:43:27;22.20;29.10
56268;DHT22;42175;46.930;9.532;2023-02-26T15:45:56;22.20;29.20
56268;DHT22;42175;46.930;9.532;2023-02-26T15:48:29;22.20;29.30
56268;DHT22;42175;46.930;9.532;2023-02-26T15:51:01;22.20;29.30
56268;DHT22;42175;46.930;9.532;2023-02-26T15:53:31;22.20;29.40
56268;DHT22;42175;46.930;9.532;2023-02-26T15:56:00;22.20;29.50
56268;DHT22;42175;46.930;9.532;2023-02-26T15:58:52;22.20;29.80
56268;DHT22;42175;46.930;9.532;2023-02-26T16:01:23;22.20;29.80
56268;DHT22;42175;46.930;9.532;2023-02-26T16:03:51;22.20;29.80
56268;DHT22;42175;46.930;9.532;2023-02-26T16:06:29;22.20;30.00
56268;DHT22;42175;46.930;9.532;2023-02-26T16:08:55;22.30;30.00
56268;DHT22;42175;46.930;9.532;2023-02-26T16:11:21;22.30;30.00
56268;DHT22;42175;46.930;9.532;2023-02-26T16:13:50;22.30;30.00
56268;DHT22;42175;46.930;9.532;2023-02-26T16:16:43;22.20;30.00
56268;DHT22;42175;46.930;9.532;2023-02-26T16:19:40;22.30;30.10
56268;DHT22;42175;46.930;9.532;2023-02-26T16:22:23;22.30;30.40
56268;DHT22;42175;46.930;9.532;2023-02-26T16:25:05;22.30;30.30
56268;DHT22;42175;46.930;9.532;2023-02-26T16:27:32;22.30;29.90
56268;DHT22;42175;46.930;9.532;2023-02-26T16:30:00;22.30;30.00
56268;DHT22;42175;46.930;9.532;2023-02-26T16:32:29;22.30;30.20
56268;DHT22;42175;46.930;9.532;2023-02-26T16:34:59;22.30;30.50
56268;DHT22;42175;46.930;9.532;2023-02-26T16:42:36;22.30;30.80
56268;DHT22;42175;46.930;9.532;2023-02-26T16:48:28;22.40;31.00
56268;DHT22;42175;46.930;9.532;2023-02-26T16:51:02;22.40;31.00
56268;DHT22;42175;46.930;9.532;2023-02-26T16:53:36;22.40;31.10
56268;DHT22;42175;46.930;9.532;2023-02-26T16:56:11;22.40;31.20
56268;DHT22;42175;46.930;9.532;2023-02-26T16:58:46;22.40;31.20
56268;DHT22;42175;46.930;9.532;2023-02-26T17:01:16;22.40;31.20
56268;DHT22;42175;46.930;9.532;2023-02-26T17:03:48;22.50;31.30
56268;DHT22;42175;46.930;9.532;2023-02-26T17:06:16;22.50;31.40
56268;DHT22;42175;46.930;9.532;2023-02-26T17:08:49;22.50;31.40
56268;DHT22;42175;46.930;9.532;2023-02-26T17:16:37;22.50;31.50
56268;DHT22;42175;46.930;9.532;2023-02-26T17:19:03;22.50;31.60
56268;DHT22;42175;46.930;9.532;2023-02-26T17:21:29;22.50;31.50
56268;DHT22;42175;46.930;9.532;2023-02-26T17:23:56;22.50;31.50
56268;DHT22;42175;46.930;9.532;2023-02-26T17:26:22;22.60;31.50
56268;DHT22;42175;46.930;9.532;2023-02-26T17:28:48;22.60;31.50
56268;DHT22;42175;46.930;9.532;2023-02-26T17:31:14;22.60;31.60
56268;DHT22;42175;46.930;9.532;2023-02-26T17:33:41;22.60;31.60
56268;DHT22;42175;46.930;9.532;2023-02-26T17:36:13;22.40;26.60
56268;DHT22;42175;46.930;9.532;2023-02-26T17:38:39;21.40;25.30
56268;DHT22;42175;46.930;9.532;2023-02-26T17:41:14;21.40;27.10
56268;DHT22;42175;46.930;9.532;2023-02-26T17:43:40;21.70;28.90
56268;DHT22;42175;46.930;9.532;2023-02-26T17:46:09;21.80;30.70
56268;DHT22;42175;46.930;9.532;2023-02-26T17:48:36;22.00;30.80
56268;DHT22;42175;46.930;9.532;2023-02-26T17:51:02;22.00;31.30
56268;DHT22;42175;46.930;9.532;2023-02-26T17:53:28;22.10;31.40
56268;DHT22;42175;46.930;9.532;2023-02-26T17:55:59;22.20;31.90
56268;DHT22;42175;46.930;9.532;2023-02-26T17:58:32;22.20;32.20
56268;DHT22;42175;46.930;9.532;2023-02-26T18:01:00;22.20;32.10
56268;DHT22;42175;46.930;9.532;2023-02-26T18:03:27;22.30;32.00
56268;DHT22;42175;46.930;9.532;2023-02-26T18:05:54;22.30;32.50
56268;DHT22;42175;46.930;9.532;2023-02-26T18:08:26;22.30;32.60
56268;DHT22;42175;46.930;9.532;2023-02-26T18:10:53;22.30;32.70
56268;DHT22;42175;46.930;9.532;2023-02-26T18:13:20;22.30;32.80
56268;DHT22;42175;46.930;9.532;2023-02-26T18:15:47;22.40;32.90
56268;DHT22;42175;46.930;9.532;2023-02-26T18:18:14;22.40;33.10
56268;DHT22;42175;46.930;9.532;2023-02-26T18:20:41;22.40;33.00
56268;DHT22;42175;46.930;9.532;2023-02-26T18:23:08;22.40;33.10
56268;DHT22;42175;46.930;9.532;2023-02-26T18:25:39;22.40;33.10
56268;DHT22;42175;46.930;9.532;2023-02-26T18:28:13;22.40;32.90
56268;DHT22;42175;46.930;9.532;2023-02-26T18:30:40;22.40;32.60
56268;DHT22;42175;46.930;9.532;2023-02-26T18:33:10;22.40;33.10
56268;DHT22;42175;46.930;9.532;2023-02-26T18:35:36;22.40;33.20
56268;DHT22;42175;46.930;9.532;2023-02-26T18:38:02;22.40;33.10
56268;DHT22;42175;46.930;9.532;2023-02-26T18:40:28;22.40;33.20
56268;DHT22;42175;46.930;9.532;2023-02-26T18:42:55;22.40;33.20
56268;DHT22;42175;46.930;9.532;2023-02-26T18:45:21;22.50;33.50
56268;DHT22;42175;46.930;9.532;2023-02-26T18:47:47;22.40;33.50
56268;DHT22;42175;46.930;9.532;2023-02-26T18:50:15;22.40;33.70
56268;DHT22;42175;46.930;9.532;2023-02-26T18:52:41;22.50;34.00
56268;DHT22;42175;46.930;9.532;2023-02-26T18:55:09;22.50;33.70
56268;DHT22;42175;46.930;9.532;2023-02-26T18:57:36;22.60;33.70
56268;DHT22;42175;46.930;9.532;2023-02-26T19:00:04;22.50;33.60
56268;DHT22;42175;46.930;9.532;2023-02-26T19:02:32;22.60;33.60
56268;DHT22;42175;46.930;9.532;2023-02-26T19:04:59;22.60;33.60
56268;DHT22;42175;46.930;9.532;2023-02-26T19:07:25;22.60;33.70
56268;DHT22;42175;46.930;9.532;2023-02-26T19:09:51;22.60;33.70